createdAt,value
2023-03-28T00:01:08.285Z,7.30
2023-03-28T00:03:39.428Z,7.50
2023-03-28T00:06:11.219Z,7.60
2023-03-28T00:08:40.260Z,7.50
2023-03-28T00:11:18.961Z,7.30
2023-03-28T00:13:53.707Z,7.00
2023-03-28T00:16:21.731Z,6.80
2023-03-28T00:18:51.065Z,6.80
2023-03-28T00:21:29.281Z,7.10
2023-03-28T00:24:03.076Z,7.10
2023-03-28T00:26:33.216Z,6.70
2023-03-28T00:29:01.947Z,6.60
2023-03-28T00:31:30.811Z,7.00
2023-03-28T00:33:58.452Z,7.20
2023-03-28T00:36:29.590Z,7.10
2023-03-28T00:38:58.097Z,7.10
2023-03-28T00:44:00.301Z,6.90
2023-03-28T00:46:39.061Z,6.80
2023-03-28T00:49:23.547Z,6.50
2023-03-28T00:51:57.171Z,6.50
2023-03-28T00:54:28.205Z,6.30
2023-03-28T00:57:00.150Z,5.80
2023-03-28T00:59:31.187Z,5.80
2023-03-28T01:01:59.241Z,6.10
2023-03-28T01:04:36.591Z,6.00
2023-03-28T01:07:05.465Z,5.90
2023-03-28T01:09:36.411Z,5.80
2023-03-28T01:12:04.566Z,5.80
2023-03-28T01:14:33.185Z,6.00
2023-03-28T01:17:03.607Z,6.70
2023-03-28T01:19:44.288Z,6.60
2023-03-28T01:22:56.902Z,6.50
2023-03-28T01:25:44.242Z,6.70
2023-03-28T01:28:42.217Z,6.60
2023-03-28T01:31:34.735Z,6.70
2023-03-28T01:34:19.664Z,6.90
2023-03-28T01:37:10.512Z,6.60
2023-03-28T01:40:11.066Z,6.40
2023-03-28T01:43:07.831Z,6.40
2023-03-28T01:45:59.895Z,6.10
2023-03-28T01:49:00.044Z,6.10
2023-03-28T01:52:19.037Z,5.90
2023-03-28T01:55:09.797Z,5.40
2023-03-28T01:58:05.231Z,5.30
2023-03-28T02:00:46.006Z,5.00
2023-03-28T02:03:25.345Z,5.00
2023-03-28T02:06:09.066Z,4.90
2023-03-28T02:08:41.206Z,4.50
2023-03-28T02:11:27.169Z,4.50
2023-03-28T02:14:20.991Z,4.10
2023-03-28T02:17:15.618Z,3.80
2023-03-28T02:20:09.091Z,4.30
2023-03-28T02:23:11.900Z,4.70
2023-03-28T02:25:49.198Z,4.90
2023-03-28T02:28:44.279Z,4.80
2023-03-28T02:31:36.225Z,4.80
2023-03-28T02:34:03.820Z,4.40
2023-03-28T02:36:57.512Z,4.30
2023-03-28T02:39:59.543Z,4.30
2023-03-28T02:42:30.006Z,4.10
2023-03-28T02:45:00.699Z,4.00
2023-03-28T02:48:09.150Z,3.80
2023-03-28T02:50:41.170Z,3.80
2023-03-28T02:53:27.318Z,3.70
2023-03-28T02:56:00.371Z,3.60
2023-03-28T02:58:54.972Z,3.90
2023-03-28T03:01:29.228Z,4.30
2023-03-28T03:03:58.682Z,4.50
2023-03-28T03:06:26.240Z,4.30
2023-03-28T03:08:53.768Z,4.30
2023-03-28T03:11:25.111Z,4.10
2023-03-28T03:13:52.532Z,3.60
2023-03-28T03:16:20.707Z,3.60
2023-03-28T03:18:48.487Z,3.70
2023-03-28T03:21:16.852Z,3.50
2023-03-28T03:23:44.330Z,3.40
2023-03-28T03:26:11.998Z,3.30
2023-03-28T03:28:46.213Z,3.40
2023-03-28T03:31:13.825Z,3.60
2023-03-28T03:34:01.870Z,3.50
2023-03-28T03:36:33.560Z,3.30
2023-03-28T03:39:01.577Z,3.20
2023-03-28T03:41:29.702Z,3.10
2023-03-28T03:43:57.239Z,3.40
2023-03-28T03:46:24.769Z,3.40
2023-03-28T03:48:53.563Z,3.20
2023-03-28T03:51:21.131Z,3.30
2023-03-28T03:53:51.947Z,3.50
2023-03-28T03:56:22.892Z,3.40
2023-03-28T03:58:56.499Z,3.40
2023-03-28T04:01:30.302Z,3.10
2023-03-28T04:04:09.794Z,2.80
2023-03-28T04:06:59.126Z,2.90
2023-03-28T04:09:27.373Z,2.90
2023-03-28T04:11:59.712Z,3.00
2023-03-28T04:14:27.918Z,3.50
2023-03-28T04:17:16.270Z,4.00
2023-03-28T04:19:45.830Z,4.10
2023-03-28T04:22:13.887Z,4.00
2023-03-28T04:24:49.968Z,3.90
2023-03-28T04:27:31.289Z,3.70
2023-03-28T04:30:00.646Z,3.40
2023-03-28T04:32:58.800Z,3.00
2023-03-28T04:35:29.820Z,3.00
2023-03-28T04:38:00.131Z,2.90
2023-03-28T04:40:28.301Z,2.90
2023-03-28T04:43:21.312Z,3.00
2023-03-28T04:45:53.636Z,3.20
2023-03-28T04:48:23.813Z,2.90
2023-03-28T04:50:51.976Z,2.70
2023-03-28T04:53:19.484Z,3.10
2023-03-28T04:56:13.802Z,3.60
2023-03-28T04:58:41.790Z,4.30
2023-03-28T05:01:10.569Z,4.70
2023-03-28T05:04:17.799Z,4.30
2023-03-28T05:06:46.598Z,4.20
2023-03-28T05:09:16.504Z,4.60
2023-03-28T05:11:44.730Z,4.90
2023-03-28T05:14:12.574Z,5.20
2023-03-28T05:16:47.710Z,5.60
2023-03-28T05:19:33.569Z,5.80
2023-03-28T05:22:11.427Z,5.00
2023-03-28T05:24:42.314Z,4.70
2023-03-28T05:27:21.701Z,4.80
2023-03-28T05:29:49.117Z,5.50
2023-03-28T05:32:18.003Z,5.90
2023-03-28T05:34:46.797Z,5.40
2023-03-28T05:37:14.300Z,5.00
2023-03-28T05:39:53.498Z,4.90
2023-03-28T05:42:21.261Z,5.20
2023-03-28T05:44:49.172Z,5.60
2023-03-28T05:47:34.545Z,6.10
2023-03-28T05:50:03.036Z,6.20
2023-03-28T05:52:30.966Z,6.00
2023-03-28T05:54:58.368Z,6.30
2023-03-28T05:57:26.266Z,6.60
2023-03-28T05:59:54.559Z,6.50
2023-03-28T06:02:24.411Z,6.40
2023-03-28T06:04:58.054Z,6.60
2023-03-28T06:07:39.204Z,7.50
2023-03-28T06:10:09.892Z,7.80
2023-03-28T06:12:38.341Z,7.90
2023-03-28T06:15:08.096Z,8.20
2023-03-28T06:17:39.816Z,8.80
2023-03-28T06:20:09.913Z,8.20
2023-03-28T06:22:38.434Z,8.10
2023-03-28T06:25:09.517Z,10.20
2023-03-28T06:27:37.162Z,11.90
2023-03-28T06:30:05.378Z,13.20
2023-03-28T06:32:39.921Z,13.60
2023-03-28T06:35:08.235Z,14.00
2023-03-28T06:37:35.731Z,14.50
2023-03-28T06:40:08.686Z,13.90
2023-03-28T06:42:36.802Z,14.90
2023-03-28T06:45:22.237Z,14.50
2023-03-28T06:47:58.109Z,15.60
2023-03-28T06:50:40.228Z,16.00
2023-03-28T06:53:11.438Z,15.70
2023-03-28T06:55:38.866Z,15.20
2023-03-28T06:58:06.819Z,16.00
2023-03-28T07:00:45.961Z,15.30
2023-03-28T07:03:32.333Z,16.00
2023-03-28T07:06:04.542Z,14.90
2023-03-28T07:08:32.911Z,13.50
2023-03-28T07:11:00.949Z,14.40
2023-03-28T07:13:29.491Z,14.90
2023-03-28T07:16:06.079Z,15.50
2023-03-28T07:18:34.738Z,15.00
2023-03-28T07:21:14.001Z,13.80
2023-03-28T07:23:42.543Z,13.10
2023-03-28T07:26:14.004Z,13.60
2023-03-28T07:28:41.642Z,15.30
2023-03-28T07:31:09.645Z,16.30
2023-03-28T07:33:38.581Z,16.50
2023-03-28T07:36:13.989Z,15.50
2023-03-28T07:38:44.071Z,13.90
2023-03-28T07:41:12.929Z,13.00
2023-03-28T07:43:40.556Z,12.60
2023-03-28T07:46:11.449Z,12.50
2023-03-28T07:48:40.798Z,12.30
2023-03-28T07:51:10.249Z,12.00
2023-03-28T07:53:38.060Z,11.90
2023-03-28T07:56:11.792Z,11.80
2023-03-28T07:59:05.586Z,11.80
2023-03-28T08:01:33.456Z,11.90
2023-03-28T08:04:03.580Z,11.90
2023-03-28T08:06:58.388Z,11.90
2023-03-28T08:09:25.920Z,11.90
2023-03-28T08:12:13.648Z,11.90
2023-03-28T08:14:43.454Z,11.90
2023-03-28T08:17:10.986Z,12.00
2023-03-28T08:19:38.495Z,12.00
2023-03-28T08:22:12.475Z,12.10
2023-03-28T08:25:03.112Z,12.10
2023-03-28T08:27:30.722Z,12.10
2023-03-28T08:30:07.762Z,12.10
2023-03-28T08:32:38.645Z,12.30
2023-03-28T08:35:07.080Z,12.40
2023-03-28T08:37:34.812Z,12.40
2023-03-28T08:40:07.080Z,12.30
2023-03-28T08:43:01.699Z,12.40
2023-03-28T08:45:51.852Z,12.40
2023-03-28T08:48:32.428Z,12.60
2023-03-28T08:51:00.101Z,12.60
2023-03-28T08:53:35.421Z,12.60
2023-03-28T08:56:07.183Z,12.60
2023-03-28T08:58:50.242Z,12.60
2023-03-28T09:01:22.224Z,12.70
2023-03-28T09:03:50.504Z,12.50
2023-03-28T09:06:40.865Z,12.50
2023-03-28T09:09:49.104Z,12.60
2023-03-28T09:13:03.838Z,12.40
2023-03-28T09:16:02.450Z,12.50
2023-03-28T09:18:37.289Z,12.70
2023-03-28T09:21:23.517Z,12.60
2023-03-28T09:24:16.512Z,12.50
2023-03-28T09:27:28.238Z,12.50
2023-03-28T09:30:18.072Z,12.40
2023-03-28T09:32:46.762Z,12.70
2023-03-28T09:35:20.444Z,12.80
2023-03-28T09:37:52.068Z,12.90
2023-03-28T09:40:20.863Z,13.10
2023-03-28T09:43:15.488Z,13.00
2023-03-28T09:46:00.474Z,13.20
2023-03-28T09:48:40.703Z,13.30
2023-03-28T09:51:17.232Z,13.20
2023-03-28T09:53:46.650Z,13.30
2023-03-28T09:56:49.858Z,13.40
2023-03-28T09:59:40.634Z,13.30
2023-03-28T10:02:30.037Z,13.30
2023-03-28T10:05:02.776Z,13.50
2023-03-28T10:07:33.461Z,13.60
2023-03-28T10:10:25.201Z,13.70
2023-03-28T10:13:06.345Z,13.60
2023-03-28T10:15:46.861Z,13.60
2023-03-28T10:18:19.696Z,13.60
2023-03-28T10:20:53.447Z,13.50
2023-03-28T10:23:23.775Z,13.50
2023-03-28T10:25:55.463Z,13.60
2023-03-28T10:28:33.837Z,13.70
2023-03-28T10:31:02.680Z,13.40
2023-03-28T10:33:42.989Z,13.20
2023-03-28T10:36:40.114Z,13.40
2023-03-28T10:39:26.415Z,13.90
2023-03-28T10:42:12.851Z,13.90
2023-03-28T10:45:02.711Z,14.00
2023-03-28T10:47:34.582Z,14.00
2023-03-28T10:50:19.994Z,13.90
2023-03-28T10:53:12.424Z,14.20
2023-03-28T10:56:13.898Z,14.20
2023-03-28T10:59:11.404Z,14.20
2023-03-28T11:01:50.332Z,14.20
2023-03-28T11:04:42.334Z,14.10
2023-03-28T11:07:24.884Z,14.10
2023-03-28T11:10:35.420Z,14.10
2023-03-28T11:13:23.123Z,14.00
2023-03-28T11:16:23.303Z,14.00
2023-03-28T11:19:36.473Z,13.90
2023-03-28T11:22:42.193Z,13.50
2023-03-28T11:25:23.990Z,13.80
2023-03-28T11:28:58.878Z,13.80
2023-03-28T11:31:51.563Z,13.90
2023-03-28T11:34:32.797Z,13.80
2023-03-28T11:37:07.610Z,14.00
2023-03-28T11:39:53.660Z,13.90
2023-03-28T11:42:42.381Z,14.00
2023-03-28T11:45:47.677Z,13.90
2023-03-28T11:48:37.654Z,13.80
2023-03-28T11:51:22.923Z,13.80
2023-03-28T11:54:05.671Z,13.80
2023-03-28T11:56:59.839Z,13.90
2023-03-28T11:59:55.480Z,13.80
2023-03-28T12:02:38.011Z,14.00
2023-03-28T12:05:10.344Z,13.90
2023-03-28T12:07:47.741Z,14.00
2023-03-28T12:10:28.040Z,14.10
2023-03-28T12:13:05.772Z,14.20
2023-03-28T12:16:14.772Z,14.30
2023-03-28T12:19:04.350Z,14.50
2023-03-28T12:21:49.668Z,14.60
2023-03-28T12:24:46.742Z,14.20
2023-03-28T12:28:00.410Z,14.30
2023-03-28T12:30:48.925Z,14.40
2023-03-28T12:33:43.340Z,14.50
2023-03-28T12:36:34.115Z,14.70
2023-03-28T12:39:34.560Z,14.50
2023-03-28T12:42:09.775Z,14.60
2023-03-28T12:44:54.622Z,14.40
2023-03-28T12:47:52.380Z,14.40
2023-03-28T12:50:33.692Z,14.60
2023-03-28T12:53:01.718Z,14.80
2023-03-28T12:55:42.147Z,14.70
2023-03-28T12:58:25.130Z,14.60
2023-03-28T13:01:21.899Z,14.80
2023-03-28T13:04:32.412Z,15.10
2023-03-28T13:07:26.944Z,15.00
2023-03-28T13:10:21.417Z,15.10
2023-03-28T13:13:16.736Z,15.60
2023-03-28T13:16:15.275Z,15.70
2023-03-28T13:18:48.287Z,15.90
2023-03-28T13:21:46.423Z,16.00
2023-03-28T13:24:26.166Z,15.90
2023-03-28T13:27:03.428Z,16.00
2023-03-28T13:29:49.295Z,16.20
2023-03-28T13:32:26.513Z,16.30
2023-03-28T13:35:01.757Z,16.20
2023-03-28T13:37:44.697Z,16.40
2023-03-28T13:40:41.206Z,17.00
2023-03-28T13:43:40.033Z,16.70
2023-03-28T13:46:38.962Z,16.70
2023-03-28T13:49:24.840Z,16.90
2023-03-28T13:52:00.628Z,16.60
2023-03-28T13:54:28.960Z,16.80
2023-03-28T13:57:06.613Z,16.60
2023-03-28T13:59:35.847Z,16.60
2023-03-28T14:02:15.812Z,17.00
2023-03-28T14:04:54.503Z,17.30
2023-03-28T14:07:29.258Z,17.60
2023-03-28T14:09:58.288Z,17.60
2023-03-28T14:12:29.479Z,17.30
2023-03-28T14:15:00.170Z,17.30
2023-03-28T14:17:32.545Z,17.60
2023-03-28T14:20:05.555Z,17.50
2023-03-28T14:22:45.756Z,17.30
2023-03-28T14:25:22.182Z,17.50
2023-03-28T14:27:51.356Z,17.40
2023-03-28T14:30:25.376Z,17.30
2023-03-28T14:33:08.470Z,16.80
2023-03-28T14:35:37.460Z,17.10
2023-03-28T14:38:36.167Z,17.10
2023-03-28T14:41:22.461Z,17.00
2023-03-28T14:43:56.042Z,17.00
2023-03-28T14:46:27.555Z,16.90
2023-03-28T14:48:59.028Z,16.90
2023-03-28T14:51:28.135Z,16.90
2023-03-28T14:53:56.296Z,17.00
2023-03-28T14:56:26.407Z,17.00
2023-03-28T14:59:02.342Z,16.90
2023-03-28T15:01:33.401Z,16.70
2023-03-28T15:04:06.778Z,16.80
2023-03-28T15:06:35.234Z,16.70
2023-03-28T15:09:28.656Z,16.80
2023-03-28T15:11:57.432Z,16.80
2023-03-28T15:14:30.847Z,16.60
2023-03-28T15:16:59.046Z,16.60
2023-03-28T15:19:40.144Z,16.60
2023-03-28T15:22:19.782Z,16.90
2023-03-28T15:24:47.706Z,16.80
2023-03-28T15:27:32.119Z,16.70
2023-03-28T15:30:13.653Z,16.60
2023-03-28T15:32:41.302Z,16.70
2023-03-28T15:35:33.084Z,16.80
2023-03-28T15:38:26.994Z,16.90
2023-03-28T15:41:18.252Z,16.90
2023-03-28T15:43:54.715Z,16.90
2023-03-28T15:46:36.379Z,16.90
2023-03-28T15:49:06.284Z,16.90
2023-03-28T15:51:48.286Z,16.80
2023-03-28T15:54:27.931Z,16.70
2023-03-28T15:57:01.670Z,16.60
2023-03-28T15:59:42.443Z,16.60
2023-03-28T16:02:25.198Z,16.50
2023-03-28T16:05:09.513Z,16.30
2023-03-28T16:07:49.960Z,16.00
2023-03-28T16:10:20.706Z,16.00
2023-03-28T16:13:14.556Z,16.00
2023-03-28T16:15:53.332Z,16.30
2023-03-28T16:18:33.316Z,16.30
2023-03-28T16:21:02.935Z,16.20
2023-03-28T16:23:30.422Z,16.20
2023-03-28T16:25:58.111Z,16.10
2023-03-28T16:28:25.616Z,16.10
2023-03-28T16:30:53.237Z,16.00
2023-03-28T16:33:21.111Z,16.00
2023-03-28T16:35:48.559Z,15.90
2023-03-28T16:38:16.310Z,15.80
2023-03-28T16:40:45.402Z,15.70
2023-03-28T16:43:15.425Z,15.60
2023-03-28T16:45:46.886Z,15.60
2023-03-28T16:48:15.070Z,15.40
2023-03-28T16:50:49.435Z,15.30
2023-03-28T16:53:16.892Z,15.20
2023-03-28T16:55:45.522Z,15.10
2023-03-28T16:58:13.087Z,15.00
2023-03-28T17:00:44.545Z,14.90
2023-03-28T17:03:12.272Z,14.80
2023-03-28T17:05:39.968Z,14.70
2023-03-28T17:08:07.634Z,14.60
2023-03-28T17:10:39.449Z,14.50
2023-03-28T17:13:07.685Z,14.40
2023-03-28T17:15:35.656Z,14.20
2023-03-28T17:18:05.708Z,14.10
2023-03-28T17:20:33.505Z,13.90
2023-03-28T17:23:00.980Z,13.60
2023-03-28T17:25:28.403Z,13.40
2023-03-28T17:27:55.991Z,13.20
2023-03-28T17:30:23.432Z,13.00
2023-03-28T17:32:51.540Z,12.80
2023-03-28T17:35:19.146Z,12.60
2023-03-28T17:37:46.646Z,12.40
2023-03-28T17:40:15.547Z,12.30
2023-03-28T17:42:43.028Z,12.20
2023-03-28T17:45:10.799Z,12.20
2023-03-28T17:47:39.452Z,12.10
2023-03-28T17:50:07.586Z,12.00
2023-03-28T17:52:35.325Z,11.80
2023-03-28T17:55:02.970Z,11.70
2023-03-28T17:57:30.414Z,11.60
2023-03-28T17:59:58.307Z,11.50
2023-03-28T18:02:26.033Z,11.40
2023-03-28T18:05:06.596Z,11.30
2023-03-28T18:07:35.506Z,11.20
2023-03-28T18:10:08.781Z,11.20
2023-03-28T18:12:37.030Z,11.10
2023-03-28T18:15:05.454Z,11.10
2023-03-28T18:17:33.007Z,11.10
2023-03-28T18:20:00.890Z,11.10
2023-03-28T18:22:29.211Z,11.00
2023-03-28T18:24:56.752Z,11.00
2023-03-28T18:27:24.218Z,10.90
2023-03-28T18:29:51.711Z,10.70
2023-03-28T18:32:19.106Z,10.60
2023-03-28T18:34:46.691Z,10.40
2023-03-28T18:37:14.312Z,10.30
2023-03-28T18:39:42.244Z,10.20
2023-03-28T18:42:09.830Z,10.10
2023-03-28T18:44:37.450Z,10.10
2023-03-28T18:47:05.292Z,10.00
2023-03-28T18:49:32.894Z,10.20
2023-03-28T18:52:04.343Z,10.20
2023-03-28T18:54:33.187Z,10.30
2023-03-28T18:57:01.583Z,10.20
2023-03-28T18:59:29.980Z,10.00
2023-03-28T19:01:58.507Z,10.20
2023-03-28T19:04:26.541Z,10.40
2023-03-28T19:06:54.063Z,10.50
2023-03-28T19:09:22.005Z,10.40
2023-03-28T19:11:53.175Z,10.30
2023-03-28T19:14:20.711Z,10.20
2023-03-28T19:16:48.283Z,10.10
2023-03-28T19:19:16.663Z,9.60
2023-03-28T19:21:44.590Z,9.30
2023-03-28T19:24:12.335Z,9.20
2023-03-28T19:26:39.763Z,9.20
2023-03-28T19:29:07.445Z,9.20
2023-03-28T19:31:34.816Z,9.30
2023-03-28T19:34:02.450Z,9.80
2023-03-28T19:36:29.903Z,9.90
2023-03-28T19:38:57.391Z,10.10
2023-03-28T19:41:26.458Z,10.30
2023-03-28T19:43:55.344Z,10.40
2023-03-28T19:46:33.107Z,10.50
2023-03-28T19:49:03.716Z,10.60
2023-03-28T19:51:31.508Z,10.60
2023-03-28T19:53:58.973Z,10.50
2023-03-28T19:56:27.217Z,10.50
2023-03-28T19:58:54.677Z,10.50
2023-03-28T20:01:22.216Z,10.50
2023-03-28T20:03:52.995Z,10.50
2023-03-28T20:06:22.600Z,10.50
2023-03-28T20:08:50.749Z,10.50
2023-03-28T20:11:18.324Z,10.50
2023-03-28T20:13:46.429Z,10.20
2023-03-28T20:16:14.721Z,10.30
2023-03-28T20:18:42.722Z,10.30
2023-03-28T20:21:13.186Z,10.30
2023-03-28T20:23:41.091Z,10.40
2023-03-28T20:26:18.116Z,10.40
2023-03-28T20:28:52.129Z,10.00
2023-03-28T20:31:19.704Z,9.70
2023-03-28T20:33:47.212Z,9.30
2023-03-28T20:36:15.062Z,9.20
2023-03-28T20:38:42.629Z,9.20
2023-03-28T20:41:14.677Z,8.90
2023-03-28T20:43:47.752Z,9.20
2023-03-28T20:46:19.857Z,9.30
2023-03-28T20:48:53.251Z,9.50
2023-03-28T20:51:22.871Z,9.60
2023-03-28T20:53:54.767Z,9.50
2023-03-28T20:56:23.502Z,9.60
2023-03-28T20:58:53.093Z,9.70
2023-03-28T21:01:26.254Z,9.70
2023-03-28T21:03:58.881Z,9.80
2023-03-28T21:06:29.493Z,9.90
2023-03-28T21:09:01.756Z,9.80
2023-03-28T21:11:30.489Z,9.80
2023-03-28T21:13:59.150Z,9.80
2023-03-28T21:16:27.683Z,9.70
2023-03-28T21:18:55.504Z,9.50
2023-03-28T21:21:23.829Z,9.50
2023-03-28T21:23:53.121Z,9.50
2023-03-28T21:26:22.793Z,9.50
2023-03-28T21:28:52.483Z,9.50
2023-03-28T21:31:27.290Z,9.40
2023-03-28T21:33:59.804Z,9.10
2023-03-28T21:36:28.034Z,8.70
2023-03-28T21:38:56.525Z,8.70
2023-03-28T21:41:24.570Z,8.60
2023-03-28T21:43:53.850Z,8.60
2023-03-28T21:46:22.264Z,8.80
2023-03-28T21:48:49.988Z,8.80
2023-03-28T21:51:17.775Z,8.50
2023-03-28T21:53:45.790Z,8.50
2023-03-28T21:56:14.858Z,8.60
2023-03-28T21:58:42.803Z,8.70
2023-03-28T22:01:13.883Z,8.70
2023-03-28T22:03:41.459Z,8.80
2023-03-28T22:06:09.454Z,8.70
2023-03-28T22:08:36.994Z,8.60
2023-03-28T22:11:13.671Z,8.40
2023-03-28T22:13:42.293Z,8.20
2023-03-28T22:16:09.874Z,8.20
2023-03-28T22:18:37.371Z,7.70
2023-03-28T22:21:05.340Z,7.50
2023-03-28T22:23:32.799Z,7.20
2023-03-28T22:26:00.362Z,7.60
2023-03-28T22:28:27.740Z,7.30
2023-03-28T22:30:56.686Z,7.00
2023-03-28T22:33:25.355Z,7.10
2023-03-28T22:35:53.387Z,7.20
2023-03-28T22:38:20.920Z,7.80
2023-03-28T22:40:48.354Z,7.90
2023-03-28T22:43:16.436Z,7.90
2023-03-28T22:45:43.936Z,8.00
2023-03-28T22:48:14.558Z,8.10
2023-03-28T22:50:47.344Z,8.10
2023-03-28T22:53:15.506Z,8.00
2023-03-28T22:55:43.986Z,7.90
2023-03-28T22:58:12.595Z,8.00
2023-03-28T23:00:40.359Z,8.10
2023-03-28T23:03:08.259Z,8.10
2023-03-28T23:05:36.282Z,8.20
2023-03-28T23:08:04.817Z,8.20
2023-03-28T23:10:32.952Z,8.30
2023-03-28T23:13:00.596Z,8.00
2023-03-28T23:15:28.287Z,7.80
2023-03-28T23:17:56.537Z,7.60
2023-03-28T23:20:24.727Z,7.40
2023-03-28T23:22:53.603Z,7.60
2023-03-28T23:25:22.157Z,7.50
2023-03-28T23:27:49.784Z,7.00
2023-03-28T23:30:17.587Z,6.90
2023-03-28T23:32:45.457Z,6.80
2023-03-28T23:35:12.971Z,6.90
2023-03-28T23:37:40.773Z,7.00
2023-03-28T23:40:15.066Z,6.60
2023-03-28T23:42:44.718Z,6.40
2023-03-28T23:45:15.101Z,6.40
2023-03-28T23:47:43.757Z,6.60
2023-03-28T23:50:12.143Z,6.70
2023-03-28T23:52:40.081Z,6.80
2023-03-28T23:55:08.911Z,6.70
2023-03-28T23:57:36.766Z,6.70
